createdAt,value
2023-12-08T00:04:35.158Z,-3.77
2023-12-08T00:12:58.090Z,-3.77
2023-12-08T00:21:21.084Z,-3.79
2023-12-08T00:29:44.336Z,-3.89
2023-12-08T00:38:07.503Z,-3.97
2023-12-08T00:46:31.217Z,-3.91
2023-12-08T00:54:54.215Z,-3.90
2023-12-08T01:03:17.269Z,-3.96
2023-12-08T01:11:40.268Z,-4.03
2023-12-08T01:20:03.301Z,-3.96
2023-12-08T01:28:26.498Z,-3.95
2023-12-08T01:36:49.664Z,-4.04
2023-12-08T01:45:13.376Z,-4.18
2023-12-08T01:53:36.950Z,-4.12
2023-12-08T02:02:00.052Z,-4.08
2023-12-08T02:10:23.030Z,-4.10
2023-12-08T02:18:46.800Z,-4.13
2023-12-08T02:27:12.522Z,-4.16
2023-12-08T02:35:39.575Z,-4.02
2023-12-08T02:44:03.250Z,-3.92
2023-12-08T02:52:27.631Z,-3.93
2023-12-08T03:00:50.665Z,-4.05
2023-12-08T03:09:14.124Z,-4.21
2023-12-08T03:17:37.455Z,-4.15
2023-12-08T03:26:00.558Z,-4.05
2023-12-08T03:34:23.959Z,-4.08
2023-12-08T03:42:47.119Z,-4.19
2023-12-08T03:51:10.219Z,-4.21
2023-12-08T03:59:34.072Z,-4.10
2023-12-08T04:07:57.196Z,-3.99
2023-12-08T04:16:20.165Z,-4.05
2023-12-08T04:24:43.322Z,-4.15
2023-12-08T04:33:06.759Z,-4.19
2023-12-08T04:41:29.938Z,-4.06
2023-12-08T04:49:53.073Z,-3.96
2023-12-08T04:58:17.725Z,-4.05
2023-12-08T05:06:40.755Z,-4.19
2023-12-08T05:15:04.256Z,-4.25
2023-12-08T05:23:27.273Z,-4.16
2023-12-08T05:31:50.624Z,-4.07
2023-12-08T05:40:14.362Z,-4.12
2023-12-08T05:48:37.713Z,-4.25
2023-12-08T05:57:01.624Z,-4.32
2023-12-08T06:05:24.893Z,-4.17
2023-12-08T06:13:48.918Z,-4.10
2023-12-08T06:22:12.033Z,-4.16
2023-12-08T06:30:35.126Z,-4.30
2023-12-08T06:38:58.225Z,-4.27
2023-12-08T06:47:21.343Z,-4.19
2023-12-08T06:55:44.780Z,-4.18
2023-12-08T07:04:08.143Z,-4.16
2023-12-08T07:12:31.619Z,-4.00
2023-12-08T07:20:55.028Z,-3.92
2023-12-08T07:29:18.331Z,-3.93
2023-12-08T07:37:42.199Z,-3.91
2023-12-08T07:46:05.383Z,-3.74
2023-12-08T07:54:33.150Z,-3.59
2023-12-08T08:02:56.725Z,-3.55
2023-12-08T08:11:19.929Z,-3.54
2023-12-08T08:19:43.288Z,-3.40
2023-12-08T08:28:06.283Z,-3.28
2023-12-08T08:36:29.276Z,-3.17
2023-12-08T08:44:53.508Z,-3.14
2023-12-08T08:53:20.056Z,-3.13
2023-12-08T09:01:43.630Z,-2.91
2023-12-08T09:10:08.682Z,-2.75
2023-12-08T09:18:32.310Z,-2.66
2023-12-08T09:26:55.505Z,-2.65
2023-12-08T09:35:19.508Z,-2.67
2023-12-08T09:44:04.178Z,-2.46
2023-12-08T09:52:27.658Z,-2.39
2023-12-08T10:00:51.832Z,-2.39
2023-12-08T10:09:20.676Z,-2.39
2023-12-08T10:17:50.153Z,-2.35
2023-12-08T10:26:15.006Z,-2.44
2023-12-08T10:34:41.642Z,-2.36
2023-12-08T10:43:08.909Z,-2.19
2023-12-08T10:51:32.545Z,-2.01
2023-12-08T10:59:58.836Z,-1.92
2023-12-08T11:08:22.017Z,-1.92
2023-12-08T11:16:59.154Z,-1.88
2023-12-08T11:25:35.265Z,-1.66
2023-12-08T11:34:08.886Z,-1.38
2023-12-08T11:42:35.208Z,-1.28
2023-12-08T11:51:05.053Z,-1.46
2023-12-08T11:59:28.720Z,-1.45
2023-12-08T12:07:54.351Z,-1.28
2023-12-08T12:16:17.515Z,-1.27
2023-12-08T12:24:40.706Z,-1.43
2023-12-08T12:33:05.403Z,-1.63
2023-12-08T12:41:28.764Z,-1.72
2023-12-08T12:50:06.433Z,-1.91
2023-12-08T12:58:29.550Z,-2.20
2023-12-08T13:06:53.185Z,-2.33
2023-12-08T13:15:19.424Z,-2.39
2023-12-08T13:23:49.146Z,-2.50
2023-12-08T13:32:12.923Z,-2.56
2023-12-08T13:40:37.186Z,-2.54
2023-12-08T13:49:01.810Z,-2.60
2023-12-08T13:57:25.575Z,-2.79
2023-12-08T14:05:49.966Z,-2.90
2023-12-08T14:14:14.389Z,-2.91
2023-12-08T14:22:38.217Z,-3.07
2023-12-08T14:31:05.880Z,-3.16
2023-12-08T14:39:31.201Z,-3.08
2023-12-08T14:47:55.666Z,-3.02
2023-12-08T14:56:20.423Z,-3.12
2023-12-08T15:04:44.537Z,-3.30
2023-12-08T15:13:10.450Z,-3.37
2023-12-08T15:21:34.879Z,-3.47
2023-12-08T15:29:59.397Z,-3.58
2023-12-08T15:38:23.420Z,-3.60
2023-12-08T15:46:47.646Z,-3.60
2023-12-08T15:55:14.222Z,-3.66
2023-12-08T16:03:38.641Z,-3.72
2023-12-08T16:12:01.816Z,-3.64
2023-12-08T16:20:25.934Z,-3.56
2023-12-08T16:28:50.735Z,-3.63
2023-12-08T16:37:14.355Z,-3.73
2023-12-08T16:45:37.684Z,-3.71
2023-12-08T16:54:04.532Z,-3.77
2023-12-08T17:02:29.822Z,-3.88
2023-12-08T17:10:54.848Z,-3.83
2023-12-08T17:19:18.063Z,-3.77
2023-12-08T17:27:43.397Z,-3.86
2023-12-08T17:36:08.134Z,-3.97
2023-12-08T17:44:35.577Z,-4.14
2023-12-08T17:52:59.008Z,-4.20
2023-12-08T18:01:22.360Z,-4.29
2023-12-08T18:09:47.002Z,-4.32
2023-12-08T18:18:11.382Z,-4.31
2023-12-08T18:26:34.971Z,-4.47
2023-12-08T18:35:00.166Z,-4.57
2023-12-08T18:43:25.087Z,-4.49
2023-12-08T18:51:49.904Z,-4.49
2023-12-08T19:00:16.870Z,-4.56
2023-12-08T19:08:42.654Z,-4.57
2023-12-08T19:17:07.880Z,-4.58
2023-12-08T19:25:35.801Z,-4.64
2023-12-08T19:34:01.074Z,-4.59
2023-12-08T19:42:27.397Z,-4.64
2023-12-08T19:50:53.062Z,-4.67
2023-12-08T19:59:16.781Z,-4.60
2023-12-08T20:07:41.936Z,-4.60
2023-12-08T20:16:06.202Z,-4.61
2023-12-08T20:24:29.494Z,-4.50
2023-12-08T20:32:57.149Z,-4.48
2023-12-08T20:41:24.545Z,-4.54
2023-12-08T20:49:47.525Z,-4.59
2023-12-08T20:58:10.524Z,-4.46
2023-12-08T21:06:34.899Z,-4.43
2023-12-08T21:14:58.060Z,-4.43
2023-12-08T21:23:21.205Z,-4.39
2023-12-08T21:31:52.732Z,-4.24
2023-12-08T21:40:18.627Z,-4.21
2023-12-08T21:48:41.873Z,-4.23
2023-12-08T21:57:05.115Z,-4.15
2023-12-08T22:05:28.217Z,-4.16
2023-12-08T22:13:51.135Z,-4.20
2023-12-08T22:22:14.503Z,-4.10
2023-12-08T22:30:37.689Z,-4.09
2023-12-08T22:39:04.349Z,-4.15
2023-12-08T22:47:28.006Z,-4.09
2023-12-08T22:55:51.401Z,-4.06
2023-12-08T23:04:14.584Z,-4.16
2023-12-08T23:12:38.158Z,-4.24
2023-12-08T23:21:01.197Z,-4.16
2023-12-08T23:29:24.203Z,-4.12
2023-12-08T23:37:47.178Z,-4.25
2023-12-08T23:46:10.300Z,-4.38
2023-12-08T23:54:33.369Z,-4.34
